sensor_id;sensor_type;location;lat;lon;timestamp;pressure;altitude;pressure_sealevel;temperature;humidity
80648;BME280;70012;0.000;0.000;2023-06-10T00:00:18;100431.53;;;19.76;54.29
80648;BME280;70012;0.000;0.000;2023-06-10T00:02:47;100435.88;;;19.68;54.77
80648;BME280;70012;0.000;0.000;2023-06-10T00:05:13;100443.31;;;19.59;54.83
80648;BME280;70012;0.000;0.000;2023-06-10T00:07:42;100434.69;;;19.46;54.89
80648;BME280;70012;0.000;0.000;2023-06-10T00:10:09;100439.44;;;19.32;55.10
80648;BME280;70012;0.000;0.000;2023-06-10T00:12:37;100433.78;;;19.23;55.35
80648;BME280;70012;0.000;0.000;2023-06-10T00:15:06;100427.31;;;19.14;55.46
80648;BME280;70012;0.000;0.000;2023-06-10T00:17:33;100433.81;;;19.09;55.78
80648;BME280;70012;0.000;0.000;2023-06-10T00:20:00;100436.78;;;18.99;56.53
80648;BME280;70012;0.000;0.000;2023-06-10T00:22:31;100427.25;;;18.91;56.50
80648;BME280;70012;0.000;0.000;2023-06-10T00:24:58;100432.72;;;18.77;56.97
80648;BME280;70012;0.000;0.000;2023-06-10T00:27:25;100440.22;;;18.63;57.64
80648;BME280;70012;0.000;0.000;2023-06-10T00:29:57;100434.25;;;18.55;58.11
80648;BME280;70012;0.000;0.000;2023-06-10T00:32:24;100434.44;;;18.45;58.34
80648;BME280;70012;0.000;0.000;2023-06-10T00:34:51;100440.38;;;18.38;58.47
80648;BME280;70012;0.000;0.000;2023-06-10T00:37:17;100437.09;;;18.36;58.71
80648;BME280;70012;0.000;0.000;2023-06-10T00:39:44;100441.66;;;18.27;59.18
80648;BME280;70012;0.000;0.000;2023-06-10T00:42:11;100441.53;;;18.18;59.16
80648;BME280;70012;0.000;0.000;2023-06-10T00:44:37;100441.72;;;18.08;59.48
80648;BME280;70012;0.000;0.000;2023-06-10T00:47:05;100437.38;;;18.02;59.44
80648;BME280;70012;0.000;0.000;2023-06-10T00:49:32;100433.06;;;17.96;59.61
80648;BME280;70012;0.000;0.000;2023-06-10T00:51:59;100446.94;;;17.90;60.35
80648;BME280;70012;0.000;0.000;2023-06-10T00:54:26;100438.69;;;17.85;60.19
80648;BME280;70012;0.000;0.000;2023-06-10T00:56:54;100443.44;;;17.85;60.44
80648;BME280;70012;0.000;0.000;2023-06-10T00:59:21;100448.28;;;17.74;60.59
80648;BME280;70012;0.000;0.000;2023-06-10T01:01:48;100447.00;;;17.66;61.01
80648;BME280;70012;0.000;0.000;2023-06-10T01:04:15;100450.75;;;17.56;61.41
80648;BME280;70012;0.000;0.000;2023-06-10T01:06:58;100453.66;;;17.46;61.62
80648;BME280;70012;0.000;0.000;2023-06-10T01:09:32;100447.88;;;17.42;61.94
80648;BME280;70012;0.000;0.000;2023-06-10T01:12:09;100449.66;;;17.33;62.18
80648;BME280;70012;0.000;0.000;2023-06-10T01:14:36;100445.53;;;17.31;62.02
80648;BME280;70012;0.000;0.000;2023-06-10T01:17:04;100446.16;;;17.27;61.84
80648;BME280;70012;0.000;0.000;2023-06-10T01:19:32;100437.09;;;17.22;62.10
80648;BME280;70012;0.000;0.000;2023-06-10T01:22:00;100443.00;;;17.15;62.89
80648;BME280;70012;0.000;0.000;2023-06-10T01:24:27;100448.06;;;17.08;63.10
80648;BME280;70012;0.000;0.000;2023-06-10T01:26:59;100442.56;;;17.03;63.09
80648;BME280;70012;0.000;0.000;2023-06-10T01:29:32;100447.03;;;16.99;63.36
80648;BME280;70012;0.000;0.000;2023-06-10T01:32:05;100442.38;;;16.94;63.54
80648;BME280;70012;0.000;0.000;2023-06-10T01:34:34;100444.94;;;16.85;63.66
80648;BME280;70012;0.000;0.000;2023-06-10T01:37:03;100438.66;;;16.79;64.17
80648;BME280;70012;0.000;0.000;2023-06-10T01:39:31;100437.28;;;16.77;64.16
80648;BME280;70012;0.000;0.000;2023-06-10T01:41:58;100445.06;;;16.75;64.23
80648;BME280;70012;0.000;0.000;2023-06-10T01:44:26;100440.72;;;16.69;64.38
80648;BME280;70012;0.000;0.000;2023-06-10T01:46:52;100448.72;;;16.70;64.31
80648;BME280;70012;0.000;0.000;2023-06-10T01:49:19;100448.47;;;16.67;64.56
80648;BME280;70012;0.000;0.000;2023-06-10T01:51:45;100446.81;;;16.65;64.23
80648;BME280;70012;0.000;0.000;2023-06-10T01:54:12;100451.22;;;16.67;64.15
80648;BME280;70012;0.000;0.000;2023-06-10T01:56:38;100447.94;;;16.64;64.49
80648;BME280;70012;0.000;0.000;2023-06-10T01:59:05;100457.38;;;16.58;64.81
80648;BME280;70012;0.000;0.000;2023-06-10T02:01:32;100451.06;;;16.58;64.84
80648;BME280;70012;0.000;0.000;2023-06-10T02:03:58;100459.09;;;16.54;64.97
80648;BME280;70012;0.000;0.000;2023-06-10T02:06:25;100460.78;;;16.50;65.30
80648;BME280;70012;0.000;0.000;2023-06-10T02:08:52;100462.19;;;16.47;65.32
80648;BME280;70012;0.000;0.000;2023-06-10T02:11:18;100460.28;;;16.43;65.45
80648;BME280;70012;0.000;0.000;2023-06-10T02:13:45;100461.44;;;16.37;65.74
80648;BME280;70012;0.000;0.000;2023-06-10T02:16:12;100460.38;;;16.32;65.55
80648;BME280;70012;0.000;0.000;2023-06-10T02:18:41;100465.09;;;16.32;65.73
80648;BME280;70012;0.000;0.000;2023-06-10T02:21:09;100462.59;;;16.30;65.91
80648;BME280;70012;0.000;0.000;2023-06-10T02:23:36;100465.72;;;16.24;65.93
80648;BME280;70012;0.000;0.000;2023-06-10T02:26:03;100457.19;;;16.20;66.23
80648;BME280;70012;0.000;0.000;2023-06-10T02:28:30;100466.63;;;16.14;66.47
80648;BME280;70012;0.000;0.000;2023-06-10T02:30:57;100462.75;;;16.10;66.46
80648;BME280;70012;0.000;0.000;2023-06-10T02:33:23;100467.78;;;16.08;66.64
80648;BME280;70012;0.000;0.000;2023-06-10T02:35:50;100464.50;;;16.00;66.78
80648;BME280;70012;0.000;0.000;2023-06-10T02:38:17;100460.66;;;15.96;66.85
80648;BME280;70012;0.000;0.000;2023-06-10T02:40:44;100460.13;;;15.94;66.91
80648;BME280;70012;0.000;0.000;2023-06-10T02:43:11;100465.41;;;15.91;67.27
80648;BME280;70012;0.000;0.000;2023-06-10T02:45:37;100465.16;;;15.87;67.39
80648;BME280;70012;0.000;0.000;2023-06-10T02:48:04;100461.84;;;15.85;67.19
80648;BME280;70012;0.000;0.000;2023-06-10T02:50:31;100455.22;;;15.81;67.47
80648;BME280;70012;0.000;0.000;2023-06-10T02:52:57;100464.91;;;15.78;67.53
80648;BME280;70012;0.000;0.000;2023-06-10T02:55:24;100467.66;;;15.78;67.37
80648;BME280;70012;0.000;0.000;2023-06-10T02:57:53;100470.69;;;15.77;67.95
80648;BME280;70012;0.000;0.000;2023-06-10T03:00:20;100464.09;;;15.73;68.14
80648;BME280;70012;0.000;0.000;2023-06-10T03:02:48;100472.38;;;15.73;68.13
80648;BME280;70012;0.000;0.000;2023-06-10T03:05:15;100466.31;;;15.71;68.23
80648;BME280;70012;0.000;0.000;2023-06-10T03:07:43;100472.97;;;15.64;68.56
80648;BME280;70012;0.000;0.000;2023-06-10T03:10:10;100468.03;;;15.61;68.83
80648;BME280;70012;0.000;0.000;2023-06-10T03:12:36;100464.72;;;15.59;68.73
80648;BME280;70012;0.000;0.000;2023-06-10T03:15:03;100467.53;;;15.54;69.04
80648;BME280;70012;0.000;0.000;2023-06-10T03:17:30;100476.59;;;15.55;69.19
80648;BME280;70012;0.000;0.000;2023-06-10T03:19:57;100469.72;;;15.52;69.11
80648;BME280;70012;0.000;0.000;2023-06-10T03:22:23;100465.88;;;15.53;69.02
80648;BME280;70012;0.000;0.000;2023-06-10T03:24:50;100476.31;;;15.56;68.88
80648;BME280;70012;0.000;0.000;2023-06-10T03:27:17;100484.88;;;15.55;69.15
80648;BME280;70012;0.000;0.000;2023-06-10T03:29:44;100485.47;;;15.51;69.13
80648;BME280;70012;0.000;0.000;2023-06-10T03:32:10;100489.59;;;15.54;69.24
80648;BME280;70012;0.000;0.000;2023-06-10T03:34:37;100486.28;;;15.52;69.03
80648;BME280;70012;0.000;0.000;2023-06-10T03:37:05;100492.06;;;15.56;69.16
80648;BME280;70012;0.000;0.000;2023-06-10T03:39:32;100479.09;;;15.51;69.20
80648;BME280;70012;0.000;0.000;2023-06-10T03:41:58;100484.06;;;15.49;69.18
80648;BME280;70012;0.000;0.000;2023-06-10T03:44:25;100481.31;;;15.49;69.37
80648;BME280;70012;0.000;0.000;2023-06-10T03:46:55;100489.59;;;15.54;69.46
80648;BME280;70012;0.000;0.000;2023-06-10T03:49:22;100477.97;;;15.57;69.19
80648;BME280;70012;0.000;0.000;2023-06-10T03:51:53;100488.16;;;15.62;69.24
80648;BME280;70012;0.000;0.000;2023-06-10T03:54:20;100492.84;;;15.66;69.27
80648;BME280;70012;0.000;0.000;2023-06-10T03:56:47;100483.44;;;15.67;69.07
80648;BME280;70012;0.000;0.000;2023-06-10T03:59:14;100490.03;;;15.72;69.03
80648;BME280;70012;0.000;0.000;2023-06-10T04:01:41;100489.50;;;15.75;68.93
80648;BME280;70012;0.000;0.000;2023-06-10T04:04:08;100488.34;;;15.81;69.17
80648;BME280;70012;0.000;0.000;2023-06-10T04:06:34;100493.88;;;15.86;68.96
80648;BME280;70012;0.000;0.000;2023-06-10T04:09:01;100489.97;;;15.92;68.86
80648;BME280;70012;0.000;0.000;2023-06-10T04:11:29;100498.19;;;15.97;69.02
80648;BME280;70012;0.000;0.000;2023-06-10T04:13:56;100511.41;;;16.06;68.61
80648;BME280;70012;0.000;0.000;2023-06-10T04:16:22;100503.91;;;16.11;69.00
80648;BME280;70012;0.000;0.000;2023-06-10T04:18:49;100502.78;;;16.12;69.39
80648;BME280;70012;0.000;0.000;2023-06-10T04:21:16;100498.06;;;16.18;69.08
80648;BME280;70012;0.000;0.000;2023-06-10T04:23:42;100509.34;;;16.22;69.04
80648;BME280;70012;0.000;0.000;2023-06-10T04:26:09;100505.75;;;16.26;69.22
80648;BME280;70012;0.000;0.000;2023-06-10T04:28:38;100499.06;;;16.32;69.16
80648;BME280;70012;0.000;0.000;2023-06-10T04:31:05;100505.09;;;16.40;68.95
80648;BME280;70012;0.000;0.000;2023-06-10T04:33:32;100510.81;;;16.48;68.45
80648;BME280;70012;0.000;0.000;2023-06-10T04:35:58;100507.72;;;16.55;69.11
80648;BME280;70012;0.000;0.000;2023-06-10T04:38:25;100515.09;;;16.65;69.90
80648;BME280;70012;0.000;0.000;2023-06-10T04:40:52;100514.75;;;16.72;69.20
80648;BME280;70012;0.000;0.000;2023-06-10T04:43:19;100501.47;;;16.74;68.87
80648;BME280;70012;0.000;0.000;2023-06-10T04:45:45;100513.25;;;16.85;68.67
80648;BME280;70012;0.000;0.000;2023-06-10T04:48:12;100506.63;;;16.86;68.34
80648;BME280;70012;0.000;0.000;2023-06-10T04:50:40;100511.25;;;16.95;67.90
80648;BME280;70012;0.000;0.000;2023-06-10T04:53:06;100500.63;;;17.03;67.89
80648;BME280;70012;0.000;0.000;2023-06-10T04:55:33;100510.97;;;17.21;69.03
80648;BME280;70012;0.000;0.000;2023-06-10T04:58:00;100515.25;;;17.33;69.48
80648;BME280;70012;0.000;0.000;2023-06-10T05:00:27;100516.19;;;17.47;68.92
80648;BME280;70012;0.000;0.000;2023-06-10T05:02:54;100518.78;;;17.63;67.82
80648;BME280;70012;0.000;0.000;2023-06-10T05:05:22;100524.00;;;17.83;66.39
80648;BME280;70012;0.000;0.000;2023-06-10T05:07:49;100514.50;;;17.95;65.35
80648;BME280;70012;0.000;0.000;2023-06-10T05:10:15;100510.44;;;18.06;64.61
80648;BME280;70012;0.000;0.000;2023-06-10T05:12:42;100509.69;;;18.19;65.41
80648;BME280;70012;0.000;0.000;2023-06-10T05:15:09;100513.13;;;18.30;64.17
80648;BME280;70012;0.000;0.000;2023-06-10T05:17:36;100510.56;;;18.34;64.62
80648;BME280;70012;0.000;0.000;2023-06-10T05:20:04;100518.78;;;18.39;63.50
80648;BME280;70012;0.000;0.000;2023-06-10T05:22:30;100513.78;;;18.41;63.66
80648;BME280;70012;0.000;0.000;2023-06-10T05:24:57;100506.50;;;18.45;63.66
80648;BME280;70012;0.000;0.000;2023-06-10T05:27:24;100519.66;;;18.53;64.14
80648;BME280;70012;0.000;0.000;2023-06-10T05:29:51;100518.16;;;18.61;64.55
80648;BME280;70012;0.000;0.000;2023-06-10T05:32:18;100516.13;;;18.67;64.03
80648;BME280;70012;0.000;0.000;2023-06-10T05:34:45;100514.81;;;18.78;63.79
80648;BME280;70012;0.000;0.000;2023-06-10T05:37:12;100513.22;;;18.91;63.75
80648;BME280;70012;0.000;0.000;2023-06-10T05:39:39;100517.97;;;19.18;63.07
80648;BME280;70012;0.000;0.000;2023-06-10T05:42:07;100518.19;;;19.50;61.96
80648;BME280;70012;0.000;0.000;2023-06-10T05:44:34;100522.97;;;20.00;60.17
80648;BME280;70012;0.000;0.000;2023-06-10T05:47:01;100519.22;;;20.41;59.28
80648;BME280;70012;0.000;0.000;2023-06-10T05:49:28;100534.00;;;20.73;58.43
80648;BME280;70012;0.000;0.000;2023-06-10T05:51:55;100527.47;;;21.01;57.94
80648;BME280;70012;0.000;0.000;2023-06-10T05:54:22;100533.81;;;21.24;58.14
80648;BME280;70012;0.000;0.000;2023-06-10T05:56:49;100540.72;;;21.35;57.75
80648;BME280;70012;0.000;0.000;2023-06-10T05:59:16;100535.31;;;21.79;57.28
80648;BME280;70012;0.000;0.000;2023-06-10T06:01:42;100529.44;;;22.16;55.93
80648;BME280;70012;0.000;0.000;2023-06-10T06:04:09;100533.66;;;22.04;56.66
80648;BME280;70012;0.000;0.000;2023-06-10T06:06:38;100540.25;;;22.09;54.84
80648;BME280;70012;0.000;0.000;2023-06-10T06:09:05;100536.31;;;22.36;52.45
80648;BME280;70012;0.000;0.000;2023-06-10T06:11:33;100537.47;;;22.52;54.01
80648;BME280;70012;0.000;0.000;2023-06-10T06:14:00;100539.94;;;22.54;53.90
80648;BME280;70012;0.000;0.000;2023-06-10T06:16:27;100531.53;;;22.71;53.38
80648;BME280;70012;0.000;0.000;2023-06-10T06:18:54;100541.22;;;22.65;52.94
80648;BME280;70012;0.000;0.000;2023-06-10T06:21:20;100534.66;;;22.70;53.49
80648;BME280;70012;0.000;0.000;2023-06-10T06:23:47;100539.94;;;22.54;53.93
80648;BME280;70012;0.000;0.000;2023-06-10T06:26:14;100534.03;;;22.55;51.54
80648;BME280;70012;0.000;0.000;2023-06-10T06:28:40;100537.47;;;22.52;53.89
80648;BME280;70012;0.000;0.000;2023-06-10T06:31:07;100541.66;;;22.85;51.42
80648;BME280;70012;0.000;0.000;2023-06-10T06:33:34;100541.78;;;23.06;51.45
80648;BME280;70012;0.000;0.000;2023-06-10T06:36:00;100541.75;;;23.15;52.16
80648;BME280;70012;0.000;0.000;2023-06-10T06:38:27;100538.47;;;23.30;50.16
80648;BME280;70012;0.000;0.000;2023-06-10T06:40:53;100557.13;;;23.39;48.79
80648;BME280;70012;0.000;0.000;2023-06-10T06:43:20;100540.75;;;23.28;50.88
80648;BME280;70012;0.000;0.000;2023-06-10T06:45:47;100550.94;;;23.33;50.38
80648;BME280;70012;0.000;0.000;2023-06-10T06:48:13;100551.75;;;23.63;50.58
80648;BME280;70012;0.000;0.000;2023-06-10T06:50:40;100542.75;;;23.58;47.90
80648;BME280;70012;0.000;0.000;2023-06-10T06:53:08;100542.41;;;23.29;45.29
80648;BME280;70012;0.000;0.000;2023-06-10T06:55:34;100543.50;;;23.37;48.67
80648;BME280;70012;0.000;0.000;2023-06-10T06:58:01;100549.97;;;23.20;45.06
80648;BME280;70012;0.000;0.000;2023-06-10T07:00:31;100552.91;;;23.24;47.69
80648;BME280;70012;0.000;0.000;2023-06-10T07:03:00;100550.97;;;23.24;48.15
80648;BME280;70012;0.000;0.000;2023-06-10T07:05:27;100549.84;;;23.08;44.49
80648;BME280;70012;0.000;0.000;2023-06-10T07:07:54;100547.28;;;23.32;46.84
80648;BME280;70012;0.000;0.000;2023-06-10T07:10:23;100545.28;;;23.42;46.09
80648;BME280;70012;0.000;0.000;2023-06-10T07:12:51;100549.78;;;23.34;47.71
80648;BME280;70012;0.000;0.000;2023-06-10T07:15:18;100546.75;;;23.78;46.76
80648;BME280;70012;0.000;0.000;2023-06-10T07:17:44;100545.19;;;23.59;43.34
80648;BME280;70012;0.000;0.000;2023-06-10T07:20:12;100551.16;;;23.79;45.94
80648;BME280;70012;0.000;0.000;2023-06-10T07:22:38;100548.97;;;23.93;45.26
80648;BME280;70012;0.000;0.000;2023-06-10T07:25:05;100552.59;;;23.85;44.36
80648;BME280;70012;0.000;0.000;2023-06-10T07:27:33;100544.97;;;23.73;44.93
80648;BME280;70012;0.000;0.000;2023-06-10T07:29:59;100546.69;;;23.87;46.57
80648;BME280;70012;0.000;0.000;2023-06-10T07:32:27;100545.97;;;23.69;42.19
80648;BME280;70012;0.000;0.000;2023-06-10T07:34:54;100551.66;;;23.81;45.55
80648;BME280;70012;0.000;0.000;2023-06-10T07:37:20;100553.22;;;23.91;46.12
80648;BME280;70012;0.000;0.000;2023-06-10T07:39:47;100542.41;;;23.89;45.78
80648;BME280;70012;0.000;0.000;2023-06-10T07:42:14;100541.41;;;23.85;46.90
80648;BME280;70012;0.000;0.000;2023-06-10T07:44:40;100537.78;;;23.93;45.42
80648;BME280;70012;0.000;0.000;2023-06-10T07:47:07;100536.28;;;23.96;43.11
80648;BME280;70012;0.000;0.000;2023-06-10T07:49:34;100537.13;;;23.96;40.80
80648;BME280;70012;0.000;0.000;2023-06-10T07:52:00;100532.31;;;23.97;40.35
80648;BME280;70012;0.000;0.000;2023-06-10T07:54:27;100533.97;;;23.98;43.81
80648;BME280;70012;0.000;0.000;2023-06-10T07:56:55;100543.25;;;24.11;44.97
80648;BME280;70012;0.000;0.000;2023-06-10T07:59:22;100543.53;;;24.18;44.79
80648;BME280;70012;0.000;0.000;2023-06-10T08:01:49;100552.38;;;24.20;43.48
80648;BME280;70012;0.000;0.000;2023-06-10T08:04:15;100544.41;;;24.31;44.25
80648;BME280;70012;0.000;0.000;2023-06-10T08:06:42;100545.47;;;24.39;43.71
80648;BME280;70012;0.000;0.000;2023-06-10T08:09:09;100545.28;;;24.44;43.55
80648;BME280;70012;0.000;0.000;2023-06-10T08:11:36;100554.28;;;24.50;43.63
80648;BME280;70012;0.000;0.000;2023-06-10T08:14:02;100542.53;;;24.56;44.37
80648;BME280;70012;0.000;0.000;2023-06-10T08:16:29;100550.72;;;24.61;43.50
80648;BME280;70012;0.000;0.000;2023-06-10T08:18:56;100553.31;;;24.67;45.15
80648;BME280;70012;0.000;0.000;2023-06-10T08:21:22;100556.38;;;24.74;44.19
80648;BME280;70012;0.000;0.000;2023-06-10T08:23:52;100560.59;;;24.80;43.55
80648;BME280;70012;0.000;0.000;2023-06-10T08:26:20;100559.47;;;24.93;44.46
80648;BME280;70012;0.000;0.000;2023-06-10T08:28:46;100554.00;;;24.97;42.47
80648;BME280;70012;0.000;0.000;2023-06-10T08:31:13;100552.47;;;25.00;43.06
80648;BME280;70012;0.000;0.000;2023-06-10T08:33:41;100547.72;;;25.00;42.01
80648;BME280;70012;0.000;0.000;2023-06-10T08:36:08;100549.94;;;25.07;44.73
80648;BME280;70012;0.000;0.000;2023-06-10T08:38:35;100550.19;;;25.14;43.10
80648;BME280;70012;0.000;0.000;2023-06-10T08:41:04;100552.53;;;25.24;43.86
80648;BME280;70012;0.000;0.000;2023-06-10T08:43:42;100552.78;;;25.32;43.05
80648;BME280;70012;0.000;0.000;2023-06-10T08:46:10;100553.72;;;25.36;43.27
80648;BME280;70012;0.000;0.000;2023-06-10T08:48:43;100560.50;;;25.47;42.76
80648;BME280;70012;0.000;0.000;2023-06-10T08:51:11;100557.13;;;25.54;40.66
80648;BME280;70012;0.000;0.000;2023-06-10T08:53:48;100559.56;;;25.55;40.50
80648;BME280;70012;0.000;0.000;2023-06-10T08:56:17;100557.25;;;25.57;39.09
80648;BME280;70012;0.000;0.000;2023-06-10T08:58:44;100553.47;;;25.66;41.37
80648;BME280;70012;0.000;0.000;2023-06-10T09:01:12;100557.22;;;25.82;41.24
80648;BME280;70012;0.000;0.000;2023-06-10T09:03:40;100565.50;;;25.91;42.37
80648;BME280;70012;0.000;0.000;2023-06-10T09:06:08;100555.53;;;26.06;40.27
80648;BME280;70012;0.000;0.000;2023-06-10T09:08:35;100571.13;;;26.16;39.64
80648;BME280;70012;0.000;0.000;2023-06-10T09:11:02;100561.38;;;26.26;40.88
80648;BME280;70012;0.000;0.000;2023-06-10T09:13:29;100560.41;;;26.34;37.85
80648;BME280;70012;0.000;0.000;2023-06-10T09:15:56;100553.50;;;26.31;36.00
80648;BME280;70012;0.000;0.000;2023-06-10T09:18:28;100560.13;;;26.51;37.16
80648;BME280;70012;0.000;0.000;2023-06-10T09:20:56;100553.38;;;26.68;38.07
80648;BME280;70012;0.000;0.000;2023-06-10T09:23:23;100555.50;;;26.88;38.57
80648;BME280;70012;0.000;0.000;2023-06-10T09:25:56;100552.63;;;27.00;37.90
80648;BME280;70012;0.000;0.000;2023-06-10T09:28:26;100550.47;;;27.09;38.35
80648;BME280;70012;0.000;0.000;2023-06-10T09:31:05;100553.19;;;27.22;38.29
80648;BME280;70012;0.000;0.000;2023-06-10T09:33:37;100553.09;;;27.34;36.62
80648;BME280;70012;0.000;0.000;2023-06-10T09:36:05;100547.22;;;27.39;37.23
80648;BME280;70012;0.000;0.000;2023-06-10T09:38:33;100545.88;;;27.49;36.42
80648;BME280;70012;0.000;0.000;2023-06-10T09:41:00;100533.53;;;27.54;33.80
80648;BME280;70012;0.000;0.000;2023-06-10T09:43:49;100533.56;;;27.73;34.13
80648;BME280;70012;0.000;0.000;2023-06-10T09:46:19;100537.63;;;27.92;36.58
80648;BME280;70012;0.000;0.000;2023-06-10T09:48:47;100536.94;;;28.15;35.67
80648;BME280;70012;0.000;0.000;2023-06-10T09:51:14;100534.19;;;28.18;33.64
80648;BME280;70012;0.000;0.000;2023-06-10T09:53:47;100538.06;;;28.30;34.55
80648;BME280;70012;0.000;0.000;2023-06-10T09:56:14;100531.03;;;28.39;35.61
80648;BME280;70012;0.000;0.000;2023-06-10T09:58:41;100535.31;;;28.53;35.86
80648;BME280;70012;0.000;0.000;2023-06-10T10:01:14;100537.00;;;28.57;34.85
80648;BME280;70012;0.000;0.000;2023-06-10T10:03:46;100532.44;;;28.69;32.00
80648;BME280;70012;0.000;0.000;2023-06-10T10:06:15;100536.91;;;28.93;33.43
80648;BME280;70012;0.000;0.000;2023-06-10T10:08:42;100534.03;;;29.13;34.13
80648;BME280;70012;0.000;0.000;2023-06-10T10:11:10;100532.34;;;29.31;33.56
80648;BME280;70012;0.000;0.000;2023-06-10T10:13:37;100527.28;;;29.44;32.53
80648;BME280;70012;0.000;0.000;2023-06-10T10:16:17;100534.34;;;29.58;33.43
80648;BME280;70012;0.000;0.000;2023-06-10T10:18:57;100528.56;;;29.74;32.24
80648;BME280;70012;0.000;0.000;2023-06-10T10:21:32;100535.31;;;29.92;33.22
80648;BME280;70012;0.000;0.000;2023-06-10T10:24:09;100532.88;;;29.91;31.07
80648;BME280;70012;0.000;0.000;2023-06-10T10:26:39;100521.91;;;29.89;31.95
80648;BME280;70012;0.000;0.000;2023-06-10T10:29:39;100530.97;;;29.98;32.35
80648;BME280;70012;0.000;0.000;2023-06-10T10:32:11;100520.19;;;30.08;32.12
80648;BME280;70012;0.000;0.000;2023-06-10T10:34:50;100525.06;;;30.11;31.09
80648;BME280;70012;0.000;0.000;2023-06-10T10:37:20;100514.72;;;30.22;30.51
80648;BME280;70012;0.000;0.000;2023-06-10T10:39:47;100530.19;;;30.35;31.43
80648;BME280;70012;0.000;0.000;2023-06-10T10:42:14;100527.22;;;30.55;31.17
80648;BME280;70012;0.000;0.000;2023-06-10T10:44:42;100524.09;;;30.60;29.29
80648;BME280;70012;0.000;0.000;2023-06-10T10:47:10;100529.03;;;30.71;30.32
80648;BME280;70012;0.000;0.000;2023-06-10T10:49:37;100531.56;;;30.83;30.13
80648;BME280;70012;0.000;0.000;2023-06-10T10:52:11;100522.06;;;31.02;29.13
80648;BME280;70012;0.000;0.000;2023-06-10T10:54:43;100515.34;;;31.14;28.95
80648;BME280;70012;0.000;0.000;2023-06-10T10:57:22;100516.88;;;31.08;28.66
80648;BME280;70012;0.000;0.000;2023-06-10T10:59:56;100503.63;;;31.16;30.76
80648;BME280;70012;0.000;0.000;2023-06-10T11:02:45;100501.13;;;31.07;27.21
80648;BME280;70012;0.000;0.000;2023-06-10T11:05:14;100496.66;;;31.06;25.99
80648;BME280;70012;0.000;0.000;2023-06-10T11:07:52;100498.41;;;31.21;29.91
80648;BME280;70012;0.000;0.000;2023-06-10T11:10:31;100490.94;;;30.98;26.49
80648;BME280;70012;0.000;0.000;2023-06-10T11:12:58;100486.44;;;30.94;27.66
80648;BME280;70012;0.000;0.000;2023-06-10T11:15:26;100495.81;;;30.57;28.76
80648;BME280;70012;0.000;0.000;2023-06-10T11:20:56;100495.88;;;30.64;26.52
80648;BME280;70012;0.000;0.000;2023-06-10T11:34:02;100482.34;;;31.99;27.45
80648;BME280;70012;0.000;0.000;2023-06-10T11:36:36;100479.22;;;32.22;24.45
80648;BME280;70012;0.000;0.000;2023-06-10T11:39:20;100467.97;;;32.40;27.11
80648;BME280;70012;0.000;0.000;2023-06-10T11:41:47;100475.69;;;32.47;27.29
80648;BME280;70012;0.000;0.000;2023-06-10T11:44:15;100461.50;;;32.62;26.51
80648;BME280;70012;0.000;0.000;2023-06-10T11:46:47;100480.19;;;32.84;26.66
80648;BME280;70012;0.000;0.000;2023-06-10T11:49:14;100464.78;;;32.64;23.98
80648;BME280;70012;0.000;0.000;2023-06-10T11:51:41;100470.47;;;32.78;24.48
80648;BME280;70012;0.000;0.000;2023-06-10T11:54:16;100460.78;;;32.94;24.10
80648;BME280;70012;0.000;0.000;2023-06-10T11:56:44;100469.28;;;32.94;22.18
80648;BME280;70012;0.000;0.000;2023-06-10T11:59:10;100456.75;;;32.87;22.40
80648;BME280;70012;0.000;0.000;2023-06-10T12:01:42;100461.19;;;32.81;22.85
80648;BME280;70012;0.000;0.000;2023-06-10T12:04:14;100455.50;;;33.03;22.88
80648;BME280;70012;0.000;0.000;2023-06-10T12:06:46;100457.53;;;32.84;21.44
80648;BME280;70012;0.000;0.000;2023-06-10T12:12:06;100449.72;;;32.23;22.05
80648;BME280;70012;0.000;0.000;2023-06-10T12:20:02;100448.94;;;32.34;20.73
80648;BME280;70012;0.000;0.000;2023-06-10T12:22:41;100436.00;;;32.40;23.02
80648;BME280;70012;0.000;0.000;2023-06-10T12:25:09;100443.94;;;32.02;22.38
80648;BME280;70012;0.000;0.000;2023-06-10T12:27:38;100445.75;;;31.61;23.18
80648;BME280;70012;0.000;0.000;2023-06-10T12:30:06;100439.09;;;31.28;23.07
80648;BME280;70012;0.000;0.000;2023-06-10T12:32:41;100436.34;;;31.43;23.97
80648;BME280;70012;0.000;0.000;2023-06-10T12:35:26;100435.34;;;31.69;23.85
80648;BME280;70012;0.000;0.000;2023-06-10T12:38:01;100435.44;;;31.95;23.42
80648;BME280;70012;0.000;0.000;2023-06-10T12:40:34;100435.09;;;32.07;22.88
80648;BME280;70012;0.000;0.000;2023-06-10T12:43:03;100438.00;;;32.21;23.00
80648;BME280;70012;0.000;0.000;2023-06-10T12:45:31;100431.97;;;32.41;22.56
80648;BME280;70012;0.000;0.000;2023-06-10T12:48:21;100442.44;;;32.30;22.32
80648;BME280;70012;0.000;0.000;2023-06-10T12:50:52;100433.94;;;32.22;22.50
80648;BME280;70012;0.000;0.000;2023-06-10T12:53:21;100441.22;;;32.23;21.91
80648;BME280;70012;0.000;0.000;2023-06-10T12:55:52;100434.72;;;32.19;21.01
80648;BME280;70012;0.000;0.000;2023-06-10T12:58:20;100429.09;;;32.27;19.37
80648;BME280;70012;0.000;0.000;2023-06-10T13:00:47;100425.88;;;32.39;18.98
80648;BME280;70012;0.000;0.000;2023-06-10T13:03:15;100429.97;;;32.70;21.26
80648;BME280;70012;0.000;0.000;2023-06-10T13:05:43;100428.34;;;32.62;22.29
80648;BME280;70012;0.000;0.000;2023-06-10T13:08:09;100420.22;;;32.46;19.53
80648;BME280;70012;0.000;0.000;2023-06-10T13:10:39;100421.84;;;32.40;21.42
80648;BME280;70012;0.000;0.000;2023-06-10T13:13:05;100427.44;;;32.18;19.35
80648;BME280;70012;0.000;0.000;2023-06-10T13:15:34;100427.38;;;32.04;19.56
80648;BME280;70012;0.000;0.000;2023-06-10T13:18:08;100423.78;;;32.14;19.77
80648;BME280;70012;0.000;0.000;2023-06-10T13:20:35;100429.09;;;32.23;21.63
80648;BME280;70012;0.000;0.000;2023-06-10T13:23:02;100410.53;;;32.47;22.05
80648;BME280;70012;0.000;0.000;2023-06-10T13:25:29;100417.81;;;32.63;21.83
80648;BME280;70012;0.000;0.000;2023-06-10T13:27:56;100409.31;;;32.45;19.14